Time;durP1;ratioP1;P1;durP2;ratioP2;P2;SDS_P1;SDS_P2;PMS_P1;PMS_P2;Temp;Humidity;BMP_temperature;BMP_pressure;BME280_temperature;BME280_humidity;BME280_pressure;Samples;Min_cycle;Max_cycle;Signal;HPM_P1;HPM_P2
2022/08/30 00:03:09;;;;;;;4.45;1.27;;;17.50;51.80;;;;;;4976844;28;20199;-75
2022/08/30 00:05:35;;;;;;;4.43;1.63;;;17.50;52.00;;;;;;4959001;28;22174;-76
2022/08/30 00:08:00;;;;;;;2.15;1.17;;;17.50;52.10;;;;;;4944445;28;20038;-75
2022/08/30 00:10:27;;;;;;;2.85;1.20;;;17.40;52.10;;;;;;4954791;28;20614;-76
2022/08/30 00:12:53;;;;;;;2.95;1.55;;;17.30;52.30;;;;;;4958877;28;20050;-75
2022/08/30 00:15:19;;;;;;;4.07;1.20;;;17.30;52.30;;;;;;4955484;28;20039;-76
2022/08/30 00:17:45;;;;;;;5.05;1.10;;;17.30;52.50;;;;;;4954463;28;20078;-75
2022/08/30 00:20:13;;;;;;;2.08;1.15;;;17.30;52.50;;;;;;4956496;28;20036;-75
2022/08/30 00:22:39;;;;;;;2.20;1.10;;;17.20;52.70;;;;;;4974262;28;20032;-75
2022/08/30 00:25:05;;;;;;;2.53;1.38;;;17.20;52.80;;;;;;4942581;28;20055;-76
2022/08/30 00:27:31;;;;;;;4.35;1.42;;;17.10;52.90;;;;;;4956617;28;20505;-75
2022/08/30 00:29:56;;;;;;;3.72;1.60;;;17.10;52.90;;;;;;4944166;28;20051;-76
2022/08/30 00:32:22;;;;;;;3.70;1.75;;;17.10;53.10;;;;;;4940968;28;20039;-76
2022/08/30 00:34:49;;;;;;;2.00;1.30;;;17.00;53.10;;;;;;4940947;28;20043;-76
2022/08/30 00:37:14;;;;;;;3.40;1.38;;;17.00;53.20;;;;;;4896391;28;20046;-75
2022/08/30 00:39:40;;;;;;;3.47;1.30;;;17.00;53.30;;;;;;4939984;28;20031;-75
2022/08/30 00:42:06;;;;;;;2.88;1.20;;;16.90;53.30;;;;;;4943125;28;20039;-75
2022/08/30 00:44:31;;;;;;;6.88;1.52;;;16.90;53.40;;;;;;4941230;28;20035;-76
2022/08/30 00:46:57;;;;;;;2.38;1.25;;;16.90;53.50;;;;;;4955348;28;20060;-76
2022/08/30 00:49:23;;;;;;;3.65;1.30;;;16.80;53.60;;;;;;4959203;28;20457;-76
2022/08/30 00:51:48;;;;;;;3.53;1.23;;;16.80;53.60;;;;;;4948109;28;20082;-76
2022/08/30 00:54:14;;;;;;;3.03;1.60;;;16.80;53.80;;;;;;4944716;29;20035;-75
2022/08/30 00:56:39;;;;;;;3.03;1.33;;;16.70;53.80;;;;;;4928386;28;20042;-75
2022/08/30 00:59:05;;;;;;;5.63;1.80;;;16.70;53.90;;;;;;4943811;28;20514;-75
2022/08/30 01:01:32;;;;;;;2.10;1.23;;;16.60;54.10;;;;;;4939185;28;20043;-75
2022/08/30 01:03:58;;;;;;;2.33;1.50;;;16.60;54.20;;;;;;4954304;28;20063;-74
2022/08/30 01:06:24;;;;;;;2.88;1.00;;;16.60;54.20;;;;;;4932850;28;20036;-75
2022/08/30 01:08:50;;;;;;;3.80;1.40;;;16.50;54.20;;;;;;4947250;28;20043;-75
2022/08/30 01:11:17;;;;;;;3.30;1.60;;;16.50;54.30;;;;;;4948340;28;20027;-75
2022/08/30 01:13:44;;;;;;;2.72;1.30;;;16.50;54.50;;;;;;4952538;28;20047;-75
2022/08/30 01:16:10;;;;;;;6.20;1.40;;;16.40;54.60;;;;;;4936596;28;20042;-76
2022/08/30 01:18:35;;;;;;;5.22;1.23;;;16.40;54.70;;;;;;4960278;28;20051;-76
2022/08/30 01:21:18;;;;;;;2.03;1.30;;;16.40;54.80;;;;;;4969231;28;20066;-76
2022/08/30 01:23:44;;;;;;;5.43;1.70;;;16.30;54.90;;;;;;4969338;28;20390;-75
2022/08/30 01:26:10;;;;;;;2.22;1.08;;;16.40;55.00;;;;;;4945090;28;20042;-75
2022/08/30 01:28:37;;;;;;;3.17;1.38;;;16.30;55.00;;;;;;4956061;28;20538;-75
2022/08/30 01:31:02;;;;;;;4.78;1.80;;;16.30;54.90;;;;;;4961083;28;20035;-75
2022/08/30 01:33:28;;;;;;;2.17;1.48;;;16.20;55.10;;;;;;4977337;28;20138;-75
2022/08/30 01:35:59;;;;;;;3.63;1.50;;;16.20;55.20;;;;;;4941466;28;20499;-75
2022/08/30 01:38:57;;;;;;;5.78;1.23;;;16.10;55.30;;;;;;4973099;28;20035;-76
2022/08/30 01:41:31;;;;;;;2.53;1.20;;;16.10;55.40;;;;;;4965870;28;20066;-76
2022/08/30 01:43:58;;;;;;;3.17;1.23;;;16.10;55.40;;;;;;4975871;28;20058;-76
2022/08/30 01:46:25;;;;;;;3.15;1.15;;;16.10;55.50;;;;;;4960462;28;20043;-75
2022/08/30 01:48:52;;;;;;;3.17;1.50;;;16.00;55.50;;;;;;4976240;28;20038;-76
2022/08/30 01:51:18;;;;;;;1.38;1.13;;;16.00;55.70;;;;;;4957343;28;20042;-77
2022/08/30 01:53:43;;;;;;;2.03;1.33;;;16.00;55.80;;;;;;4973435;28;20051;-75
2022/08/30 01:56:09;;;;;;;4.53;1.63;;;15.90;55.80;;;;;;4975590;28;20031;-75
2022/08/30 01:58:35;;;;;;;2.65;1.17;;;15.90;55.90;;;;;;4961714;28;20030;-75
2022/08/30 02:01:02;;;;;;;3.10;1.35;;;15.90;56.00;;;;;;4958978;28;20047;-75
2022/08/30 02:03:31;;;;;;;3.50;1.40;;;15.90;56.20;;;;;;4960468;28;20099;-76
2022/08/30 02:06:00;;;;;;;2.78;1.27;;;15.80;56.20;;;;;;4960248;28;20030;-75
2022/08/30 02:08:26;;;;;;;2.13;1.45;;;15.80;56.30;;;;;;4960185;28;20042;-75
2022/08/30 02:10:51;;;;;;;1.75;1.20;;;15.80;56.40;;;;;;4973513;28;20094;-75
2022/08/30 02:13:17;;;;;;;2.35;1.23;;;15.70;56.40;;;;;;4989154;28;20034;-75
2022/08/30 02:15:43;;;;;;;4.13;1.65;;;15.70;56.50;;;;;;4941188;28;20042;-76
2022/08/30 02:18:09;;;;;;;2.28;1.30;;;15.70;56.50;;;;;;4976224;28;20053;-75
2022/08/30 02:20:36;;;;;;;3.67;1.58;;;15.60;56.60;;;;;;4960490;28;20045;-76
2022/08/30 02:23:01;;;;;;;2.55;1.52;;;15.60;56.70;;;;;;4959050;28;20038;-76
2022/08/30 02:25:27;;;;;;;3.28;1.35;;;15.60;56.70;;;;;;4976504;28;20526;-75
2022/08/30 02:27:52;;;;;;;3.63;1.52;;;15.50;56.70;;;;;;4975606;28;20046;-76
2022/08/30 02:30:18;;;;;;;2.38;1.33;;;15.50;56.80;;;;;;4977255;28;20035;-76
2022/08/30 02:32:43;;;;;;;1.85;1.38;;;15.50;56.90;;;;;;4973896;28;20055;-75
2022/08/30 02:35:09;;;;;;;2.53;1.42;;;15.40;56.90;;;;;;4960106;28;20039;-75
2022/08/30 02:37:35;;;;;;;4.07;1.35;;;15.40;57.10;;;;;;4974109;28;20039;-75
2022/08/30 02:40:00;;;;;;;2.78;1.65;;;15.40;57.10;;;;;;4961199;28;20042;-75
2022/08/30 02:42:26;;;;;;;2.65;1.45;;;15.40;57.10;;;;;;4968926;28;20154;-75
2022/08/30 02:44:51;;;;;;;2.28;1.50;;;15.30;57.20;;;;;;4955435;28;20503;-75
2022/08/30 02:47:17;;;;;;;3.70;1.30;;;15.30;57.20;;;;;;4974600;28;20053;-76
2022/08/30 02:49:42;;;;;;;3.40;1.50;;;15.30;57.30;;;;;;4944610;28;20618;-74
2022/08/30 02:52:08;;;;;;;4.95;1.80;;;15.30;57.30;;;;;;4958901;28;20059;-75
2022/08/30 02:54:34;;;;;;;4.18;1.52;;;15.20;57.40;;;;;;4974552;28;20042;-76
2022/08/30 02:57:03;;;;;;;2.22;1.42;;;15.20;57.50;;;;;;4976391;28;20046;-75
2022/08/30 02:59:29;;;;;;;4.50;1.85;;;15.20;57.60;;;;;;4974142;28;20038;-75
2022/08/30 03:01:54;;;;;;;2.65;1.58;;;15.10;57.70;;;;;;4963878;28;20039;-74
2022/08/30 03:04:20;;;;;;;4.47;1.70;;;15.10;57.70;;;;;;4974256;28;20042;-75
2022/08/30 03:06:45;;;;;;;2.88;1.55;;;15.10;57.70;;;;;;4958495;28;20130;-75
2022/08/30 03:09:11;;;;;;;2.55;1.58;;;15.00;57.80;;;;;;4960164;28;20045;-75
2022/08/30 03:11:37;;;;;;;4.18;1.40;;;15.00;57.90;;;;;;4944454;28;20043;-75
2022/08/30 03:14:03;;;;;;;4.10;1.42;;;15.00;58.00;;;;;;4960270;28;20110;-75
2022/08/30 03:16:28;;;;;;;4.47;1.40;;;15.00;58.20;;;;;;4958637;28;20043;-75
2022/08/30 03:18:54;;;;;;;2.47;1.30;;;15.00;58.20;;;;;;4957880;28;20066;-76
2022/08/30 03:21:19;;;;;;;4.35;1.42;;;14.90;58.30;;;;;;4952241;28;20047;-75
2022/08/30 03:23:45;;;;;;;2.35;1.67;;;14.90;58.30;;;;;;4955364;28;20086;-75
2022/08/30 03:26:13;;;;;;;3.65;1.73;;;14.90;58.50;;;;;;4947055;28;20032;-75
2022/08/30 03:28:39;;;;;;;3.70;1.80;;;14.90;58.50;;;;;;4958417;28;20035;-75
2022/08/30 03:31:05;;;;;;;4.35;1.63;;;14.80;58.40;;;;;;4954393;28;20039;-76
2022/08/30 03:33:30;;;;;;;3.70;1.80;;;14.80;58.60;;;;;;4956984;28;20034;-76
2022/08/30 03:35:56;;;;;;;5.50;2.00;;;14.80;58.70;;;;;;4956144;29;20217;-76
2022/08/30 03:38:21;;;;;;;4.72;2.05;;;14.80;58.80;;;;;;4955937;28;20042;-75
2022/08/30 03:40:47;;;;;;;6.50;1.83;;;14.70;58.90;;;;;;4938457;28;20662;-76
2022/08/30 03:43:12;;;;;;;3.90;1.83;;;14.70;59.00;;;;;;4955471;28;20123;-76
2022/08/30 03:45:38;;;;;;;5.78;2.10;;;14.70;59.10;;;;;;4955717;28;20039;-76
2022/08/30 03:48:04;;;;;;;4.93;2.03;;;14.70;59.10;;;;;;4941807;28;20042;-77
2022/08/30 03:50:29;;;;;;;5.63;2.03;;;14.60;59.10;;;;;;4927366;28;20044;-76
2022/08/30 03:52:56;;;;;;;3.45;1.90;;;14.60;59.40;;;;;;4940192;28;20127;-75
2022/08/30 03:55:21;;;;;;;3.53;1.75;;;14.60;59.30;;;;;;4936398;29;20055;-76
2022/08/30 03:57:47;;;;;;;2.28;1.63;;;14.60;59.40;;;;;;4945876;28;21590;-76
2022/08/30 04:00:13;;;;;;;4.22;1.55;;;14.50;59.50;;;;;;4959335;28;20035;-75
2022/08/30 04:02:39;;;;;;;2.47;1.45;;;14.50;59.50;;;;;;4945248;29;20043;-75
2022/08/30 04:05:05;;;;;;;4.75;1.85;;;14.50;59.70;;;;;;4962228;28;20046;-76
2022/08/30 04:07:30;;;;;;;6.72;1.70;;;14.50;59.70;;;;;;4945942;28;20063;-76
2022/08/30 04:09:56;;;;;;;3.53;1.50;;;14.50;59.90;;;;;;4969029;28;20038;-76
2022/08/30 04:12:21;;;;;;;5.25;1.50;;;14.40;59.90;;;;;;4944657;28;20031;-76
2022/08/30 04:14:47;;;;;;;3.67;1.55;;;14.40;59.90;;;;;;4946812;29;20039;-76
2022/08/30 04:17:13;;;;;;;4.40;1.75;;;14.40;60.00;;;;;;4965718;28;20609;-75
2022/08/30 04:19:38;;;;;;;1.67;1.40;;;14.40;60.00;;;;;;4985877;28;20129;-75
2022/08/30 04:22:04;;;;;;;2.58;1.65;;;14.30;60.00;;;;;;4992099;28;20056;-76
2022/08/30 04:24:30;;;;;;;7.13;1.50;;;14.30;60.20;;;;;;4997193;28;20023;-76
2022/08/30 04:26:56;;;;;;;3.80;1.55;;;14.30;60.30;;;;;;4972471;28;20085;-76
2022/08/30 04:29:21;;;;;;;3.35;1.40;;;14.30;60.30;;;;;;4984863;28;20018;-76
2022/08/30 04:31:47;;;;;;;3.33;1.77;;;14.30;60.40;;;;;;4986209;28;20271;-76
2022/08/30 04:34:12;;;;;;;2.95;1.70;;;14.20;60.40;;;;;;5000323;28;20030;-75
2022/08/30 04:36:38;;;;;;;5.10;1.38;;;14.20;61.30;;;;;;4987506;28;20775;-76
2022/08/30 04:39:04;;;;;;;5.20;1.67;;;14.20;60.70;;;;;;4963658;28;20039;-76
2022/08/30 04:41:29;;;;;;;7.93;1.83;;;14.20;60.80;;;;;;4958615;28;20028;-75
2022/08/30 04:43:55;;;;;;;5.00;2.40;;;14.10;60.90;;;;;;5005821;28;20046;-76
2022/08/30 04:46:20;;;;;;;4.50;2.20;;;14.10;61.00;;;;;;5003120;28;20109;-75
2022/08/30 04:48:46;;;;;;;3.45;1.55;;;14.10;61.00;;;;;;4974533;28;20035;-76
2022/08/30 04:51:13;;;;;;;2.40;1.63;;;14.10;61.10;;;;;;4989162;28;20053;-75
2022/08/30 04:53:39;;;;;;;4.50;1.65;;;14.00;61.20;;;;;;4970278;28;20039;-75
2022/08/30 04:56:15;;;;;;;3.28;2.08;;;14.00;61.30;;;;;;4990855;28;20034;-76
2022/08/30 04:58:41;;;;;;;4.15;1.50;;;14.00;61.40;;;;;;4969897;28;20050;-76
2022/08/30 05:01:14;;;;;;;6.57;1.70;;;14.00;61.40;;;;;;4989562;28;20034;-76
2022/08/30 05:03:39;;;;;;;3.75;1.50;;;14.00;61.70;;;;;;4972940;28;20043;-75
2022/08/30 05:06:05;;;;;;;3.10;1.80;;;14.00;61.60;;;;;;5004878;28;20118;-76
2022/08/30 05:08:31;;;;;;;3.65;1.50;;;13.90;61.70;;;;;;5004173;28;20049;-76
2022/08/30 05:10:56;;;;;;;4.80;2.00;;;14.00;61.90;;;;;;4957087;28;20034;-77
2022/08/30 05:13:22;;;;;;;4.05;1.58;;;13.90;62.00;;;;;;5003111;28;20106;-76
2022/08/30 05:15:47;;;;;;;4.65;1.73;;;13.90;62.00;;;;;;4990613;28;20045;-76
2022/08/30 05:18:14;;;;;;;4.05;1.55;;;13.90;62.90;;;;;;4957313;28;20046;-75
2022/08/30 05:20:40;;;;;;;3.08;1.80;;;13.90;62.20;;;;;;4971526;28;20038;-74
2022/08/30 05:23:05;;;;;;;2.33;1.15;;;13.90;62.20;;;;;;4973670;28;20040;-76
2022/08/30 05:25:33;;;;;;;4.35;1.77;;;13.90;62.40;;;;;;4985548;28;20123;-76
2022/08/30 05:27:58;;;;;;;3.20;1.60;;;13.90;62.40;;;;;;4971028;28;20046;-76
2022/08/30 05:30:25;;;;;;;6.00;2.97;;;13.90;62.60;;;;;;4987428;28;20048;-75
2022/08/30 05:32:51;;;;;;;4.35;2.85;;;13.90;62.70;;;;;;4985958;28;20070;-76
2022/08/30 05:35:16;;;;;;;4.18;2.80;;;13.90;62.70;;;;;;4974108;28;20035;-76
2022/08/30 05:37:42;;;;;;;6.32;2.53;;;13.90;62.80;;;;;;4988382;28;20030;-76
2022/08/30 05:40:08;;;;;;;4.70;2.47;;;13.90;62.90;;;;;;4989066;28;20042;-76
2022/08/30 05:42:34;;;;;;;4.32;2.13;;;13.90;62.90;;;;;;4972071;28;20309;-75
2022/08/30 05:45:00;;;;;;;3.90;2.20;;;14.00;63.10;;;;;;4971628;28;20506;-76
2022/08/30 05:47:25;;;;;;;2.85;1.80;;;14.00;64.00;;;;;;4955616;28;20101;-76
2022/08/30 05:49:51;;;;;;;5.80;2.15;;;14.00;63.20;;;;;;4986772;28;20092;-75
2022/08/30 05:52:17;;;;;;;7.80;1.92;;;14.00;63.20;;;;;;4972295;28;20043;-76
2022/08/30 05:54:50;;;;;;;8.05;2.25;;;14.00;63.30;;;;;;4986693;28;20038;-75
2022/08/30 05:57:15;;;;;;;4.72;1.77;;;14.10;63.50;;;;;;4973716;28;20050;-76
2022/08/30 05:59:41;;;;;;;5.95;1.77;;;14.10;63.40;;;;;;5002169;28;20030;-76
2022/08/30 06:02:08;;;;;;;7.15;2.20;;;14.20;63.50;;;;;;4973872;28;20023;-76
2022/08/30 06:04:35;;;;;;;4.10;1.75;;;14.30;63.70;;;;;;4967320;28;20038;-76
2022/08/30 06:07:01;;;;;;;6.78;1.98;;;14.30;63.70;;;;;;4986151;28;20082;-77
2022/08/30 06:09:26;;;;;;;7.15;2.30;;;14.30;63.80;;;;;;4985041;28;20035;-75
2022/08/30 06:11:52;;;;;;;8.90;2.58;;;14.40;64.80;;;;;;5000348;28;20053;-76
2022/08/30 06:14:17;;;;;;;5.97;2.38;;;14.40;63.90;;;;;;4953412;28;20026;-75
2022/08/30 06:16:46;;;;;;;11.18;2.95;;;14.50;64.10;;;;;;4983158;28;20031;-76
2022/08/30 06:19:12;;;;;;;5.63;2.22;;;14.60;64.00;;;;;;4984668;28;20485;-76
2022/08/30 06:21:38;;;;;;;12.30;2.38;;;14.60;64.10;;;;;;4969846;28;20054;-76
2022/08/30 06:24:04;;;;;;;7.32;2.35;;;14.70;64.00;;;;;;4985941;28;20035;-75
2022/08/30 06:26:30;;;;;;;8.90;2.13;;;14.80;64.00;;;;;;4986912;28;20038;-75
2022/08/30 06:28:56;;;;;;;9.73;2.13;;;14.90;64.00;;;;;;4985368;28;20402;-76
2022/08/30 06:31:22;;;;;;;5.07;1.80;;;15.00;64.00;;;;;;4998486;28;20030;-75
2022/08/30 06:33:48;;;;;;;5.90;2.38;;;15.10;63.90;;;;;;4970015;28;20382;-76
2022/08/30 06:36:16;;;;;;;7.30;3.08;;;15.20;63.80;;;;;;4968570;28;20054;-76
2022/08/30 06:38:42;;;;;;;9.68;2.67;;;15.30;63.80;;;;;;4968485;28;20271;-75
2022/08/30 06:41:09;;;;;;;9.77;2.65;;;15.40;63.60;;;;;;4970499;28;20039;-76
2022/08/30 06:43:35;;;;;;;3.20;1.77;;;15.50;63.60;;;;;;4986219;28;20042;-76
2022/08/30 06:46:02;;;;;;;3.85;2.10;;;15.60;63.40;;;;;;4984043;28;20566;-75
2022/08/30 06:48:27;;;;;;;8.38;2.40;;;15.80;63.20;;;;;;4966965;28;20046;-75
2022/08/30 06:50:53;;;;;;;12.32;2.25;;;15.90;63.00;;;;;;4979243;28;20048;-75
2022/08/30 06:53:19;;;;;;;4.32;1.85;;;16.00;62.80;;;;;;4981495;28;20042;-75
2022/08/30 06:55:44;;;;;;;8.60;2.00;;;16.10;62.60;;;;;;4949629;28;20112;-75
2022/08/30 06:58:10;;;;;;;5.25;2.20;;;16.20;62.30;;;;;;4982053;28;20031;-75
2022/08/30 07:00:35;;;;;;;6.88;1.85;;;16.40;62.10;;;;;;4980404;28;20035;-76
2022/08/30 07:03:01;;;;;;;6.20;1.58;;;16.50;61.90;;;;;;4980139;28;20026;-75
2022/08/30 07:05:27;;;;;;;4.47;1.92;;;16.70;61.70;;;;;;4980735;28;20089;-76
2022/08/30 07:07:53;;;;;;;8.70;2.13;;;16.90;61.40;;;;;;4965745;28;20049;-74
2022/08/30 07:10:19;;;;;;;5.80;1.90;;;17.00;61.10;;;;;;4983024;28;20030;-76
2022/08/30 07:12:45;;;;;;;6.43;2.58;;;17.20;60.80;;;;;;4965294;28;20048;-76
2022/08/30 07:15:11;;;;;;;12.00;2.20;;;17.40;60.40;;;;;;5001992;28;20547;-75
2022/08/30 07:20:21;;;;;;;6.53;2.05;;;17.70;59.70;;;;;;4984838;28;20042;-75
2022/08/30 07:22:47;;;;;;;10.88;2.20;;;17.90;59.40;;;;;;4980088;28;20108;-77
2022/08/30 07:25:14;;;;;;;11.05;2.03;;;18.10;59.20;;;;;;5000900;28;20022;-76
2022/08/30 07:27:39;;;;;;;8.98;3.13;;;18.20;58.90;;;;;;4981651;28;20089;-75
2022/08/30 07:30:05;;;;;;;8.95;1.80;;;18.40;58.60;;;;;;4998012;28;20034;-75
2022/08/30 07:32:31;;;;;;;5.55;1.65;;;18.60;58.40;;;;;;4983145;28;20042;-76
2022/08/30 07:34:57;;;;;;;10.57;2.40;;;18.80;58.10;;;;;;5004317;28;20058;-76
2022/08/30 07:37:22;;;;;;;6.53;2.60;;;18.90;57.70;;;;;;5001563;28;20034;-74
2022/08/30 07:39:48;;;;;;;8.88;2.00;;;19.10;57.40;;;;;;4984405;28;20038;-75
2022/08/30 07:42:14;;;;;;;6.50;1.95;;;19.30;57.20;;;;;;5001924;28;20044;-75
2022/08/30 07:44:39;;;;;;;6.00;1.80;;;19.50;57.00;;;;;;4969629;28;20100;-74
2022/08/30 07:47:05;;;;;;;6.40;1.85;;;19.60;56.60;;;;;;4970468;28;20044;-75
2022/08/30 07:49:31;;;;;;;5.35;1.98;;;19.80;56.40;;;;;;4959810;28;20094;-77
2022/08/30 07:51:56;;;;;;;5.97;2.58;;;20.00;56.10;;;;;;4973313;28;20061;-76
2022/08/30 07:54:22;;;;;;;16.65;2.60;;;20.20;55.80;;;;;;4985905;28;20011;-77
2022/08/30 07:56:47;;;;;;;5.63;3.05;;;20.40;55.50;;;;;;4987432;28;20120;-77
2022/08/30 07:59:13;;;;;;;3.97;1.70;;;20.50;55.00;;;;;;4969450;28;20037;-75
2022/08/30 08:01:39;;;;;;;7.13;2.03;;;20.70;54.80;;;;;;5001506;28;20061;-75
2022/08/30 08:04:04;;;;;;;3.85;1.98;;;20.90;54.50;;;;;;4990162;28;20090;-77
2022/08/30 08:06:30;;;;;;;6.75;1.65;;;21.10;54.20;;;;;;4987305;28;20034;-76
2022/08/30 08:09:00;;;;;;;4.85;2.05;;;21.30;53.80;;;;;;4972129;28;20795;-75
2022/08/30 08:11:26;;;;;;;7.45;2.17;;;21.50;53.60;;;;;;4944188;28;20058;-76
2022/08/30 08:13:52;;;;;;;5.00;1.90;;;21.70;53.30;;;;;;4945089;28;20042;-75
2022/08/30 08:16:18;;;;;;;6.10;2.00;;;21.90;53.00;;;;;;4970495;28;20044;-76
2022/08/30 08:18:43;;;;;;;5.60;1.70;;;22.10;52.60;;;;;;4954669;28;20239;-75
2022/08/30 08:21:10;;;;;;;6.45;1.80;;;22.30;52.20;;;;;;4961193;28;20039;-76
2022/08/30 08:23:36;;;;;;;6.10;1.75;;;22.50;51.80;;;;;;4976109;28;20034;-76
2022/08/30 08:26:01;;;;;;;4.68;2.50;;;22.70;51.60;;;;;;4969546;28;20049;-76
2022/08/30 08:28:27;;;;;;;9.25;2.22;;;22.90;51.20;;;;;;4968692;28;20050;-76
2022/08/30 08:30:52;;;;;;;2.88;2.10;;;23.20;50.80;;;;;;5002090;28;20137;-76
2022/08/30 08:33:18;;;;;;;2.90;1.52;;;23.40;50.50;;;;;;4983603;28;20054;-76
2022/08/30 08:35:44;;;;;;;6.68;2.33;;;23.60;50.30;;;;;;4970718;28;20022;-76
2022/08/30 08:38:10;;;;;;;3.88;1.42;;;23.80;49.90;;;;;;4968355;28;20050;-76
2022/08/30 08:40:59;;;;;;;3.78;1.90;;;24.00;49.50;;;;;;4985924;28;20060;-76
2022/08/30 08:43:25;;;;;;;8.75;1.90;;;24.10;49.10;;;;;;4999117;28;20126;-76
2022/08/30 08:46:03;;;;;;;4.18;1.80;;;24.30;49.50;;;;;;4983478;28;20026;-77
2022/08/30 08:48:37;;;;;;;5.20;2.10;;;24.50;48.60;;;;;;4966112;28;20038;-76
2022/08/30 08:53:52;;;;;;;5.10;2.10;;;24.80;48.00;;;;;;4986816;28;20486;-77
2022/08/30 08:56:17;;;;;;;5.28;1.60;;;25.00;47.60;;;;;;4988746;28;20119;-76
2022/08/30 08:58:45;;;;;;;7.55;1.90;;;25.20;47.50;;;;;;4988769;28;20038;-77
2022/08/30 09:01:12;;;;;;;2.65;1.70;;;25.40;47.20;;;;;;4965973;28;20038;-76
2022/08/30 09:03:38;;;;;;;3.92;1.88;;;25.60;47.00;;;;;;4973709;28;20042;-76
2022/08/30 09:06:29;;;;;;;4.75;2.30;;;25.80;46.70;;;;;;4971339;28;20070;-76
2022/08/30 09:08:55;;;;;;;3.90;2.35;;;26.00;46.40;;;;;;4955101;28;20270;-76
2022/08/30 09:11:25;;;;;;;4.45;1.83;;;26.20;46.10;;;;;;4997579;28;20045;-76
2022/08/30 09:13:51;;;;;;;5.57;2.30;;;26.40;45.80;;;;;;4984250;28;20049;-77
2022/08/30 09:16:59;;;;;;;5.93;1.92;;;26.60;45.70;;;;;;4987153;28;20042;-76
2022/08/30 09:19:50;;;;;;;7.53;2.03;;;26.70;44.90;;;;;;4967567;28;20047;-77
2022/08/30 09:22:25;;;;;;;2.67;1.80;;;26.90;44.60;;;;;;4959785;28;20035;-77
2022/08/30 09:25:01;;;;;;;4.28;1.85;;;27.10;44.60;;;;;;4952178;28;20098;-77
2022/08/30 09:27:36;;;;;;;41.58;10.65;;;27.30;44.40;;;;;;4956483;28;20102;-78
2022/08/30 09:30:14;;;;;;;11.85;3.70;;;27.50;44.30;;;;;;4970059;28;20027;-77
2022/08/30 09:32:41;;;;;;;11.98;3.33;;;27.70;44.10;;;;;;4940362;29;20720;-77
2022/08/30 09:35:12;;;;;;;5.95;2.20;;;28.00;43.90;;;;;;4935402;29;20036;-77
2022/08/30 09:37:40;;;;;;;4.30;2.20;;;28.20;43.40;;;;;;4959526;28;20035;-77
2022/08/30 09:40:21;;;;;;;4.43;1.90;;;28.40;43.30;;;;;;4942226;28;20042;-77
2022/08/30 09:43:03;;;;;;;;;;;28.60;42.50;;;;;;4927027;28;20094;-77
2022/08/30 09:45:37;;;;;;;2.83;2.00;;;28.80;42.90;;;;;;4956407;28;19922;-77
2022/08/30 09:48:25;;;;;;;6.65;1.85;;;29.00;42.80;;;;;;4955260;28;20039;-77
2022/08/30 09:51:09;;;;;;;6.10;2.00;;;29.30;42.10;;;;;;4948450;28;20071;-77
2022/08/30 09:53:50;;;;;;;3.00;1.98;;;29.40;41.60;;;;;;4950531;28;20036;-77
2022/08/30 09:56:16;;;;;;;;;;;29.60;41.70;;;;;;4950041;28;20028;-77
2022/08/30 09:59:19;;;;;;;3.63;2.05;;;29.70;41.50;;;;;;4936640;28;20445;-78
2022/08/30 10:02:09;;;;;;;3.58;2.08;;;29.80;40.30;;;;;;4952186;28;20039;-78
2022/08/30 10:04:39;;;;;;;3.30;1.88;;;29.90;40.60;;;;;;4959270;28;20031;-77
2022/08/30 10:07:09;;;;;;;4.95;2.13;;;30.10;40.50;;;;;;4958735;28;20043;-77
2022/08/30 10:09:38;;;;;;;1.92;1.52;;;30.20;40.10;;;;;;4957328;29;20035;-77
2022/08/30 10:12:11;;;;;;;3.30;1.65;;;30.40;39.80;;;;;;4959819;28;20031;-77
2022/08/30 10:15:01;;;;;;;3.47;1.77;;;30.50;39.40;;;;;;4958753;28;20043;-77
2022/08/30 10:17:37;;;;;;;4.97;1.77;;;30.70;39.10;;;;;;4959769;28;20046;-77
2022/08/30 10:20:06;;;;;;;3.55;2.10;;;30.90;38.50;;;;;;4995135;28;20070;-77
2022/08/30 10:22:40;;;;;;;1.98;1.63;;;31.10;38.60;;;;;;4993771;28;20054;-77
2022/08/30 10:25:21;;;;;;;2.03;1.60;;;31.20;37.90;;;;;;4977964;28;20057;-77
2022/08/30 10:27:52;;;;;;;3.38;1.58;;;31.30;37.50;;;;;;4959456;28;20054;-77
2022/08/30 10:30:18;;;;;;;1.83;1.65;;;31.40;37.00;;;;;;4986325;28;20043;-77
2022/08/30 10:32:54;;;;;;;3.55;1.67;;;31.50;36.90;;;;;;4979371;28;20062;-77
2022/08/30 10:35:23;;;;;;;2.95;1.75;;;31.50;36.50;;;;;;4954582;28;20034;-77
2022/08/30 10:37:58;;;;;;;2.58;1.80;;;31.70;36.40;;;;;;4994873;28;20043;-77
2022/08/30 10:43:37;;;;;;;3.30;1.60;;;31.90;35.20;;;;;;4981320;28;20034;-77
2022/08/30 10:46:13;;;;;;;2.55;1.55;;;32.10;35.10;;;;;;4981033;28;20121;-78
2022/08/30 10:48:41;;;;;;;2.78;1.75;;;32.10;34.80;;;;;;4966346;28;20334;-77
2022/08/30 10:51:38;;;;;;;2.72;1.50;;;32.10;34.70;;;;;;4977949;28;20038;-77
2022/08/30 10:54:11;;;;;;;2.08;1.50;;;32.30;34.40;;;;;;4958484;28;20037;-78
2022/08/30 10:56:39;;;;;;;4.20;1.63;;;32.40;33.80;;;;;;4963361;28;20042;-77
2022/08/30 10:59:04;;;;;;;1.67;1.58;;;32.50;33.90;;;;;;4981712;28;20157;-77
2022/08/30 11:01:43;;;;;;;3.15;2.00;;;32.60;33.60;;;;;;4955981;28;20034;-77
2022/08/30 11:04:23;;;;;;;2.50;1.67;;;32.80;33.20;;;;;;4973630;28;20034;-78
2022/08/30 11:07:31;;;;;;;2.05;1.38;;;33.00;32.40;;;;;;4967586;28;20502;-78
2022/08/30 11:10:26;;;;;;;4.65;2.10;;;33.10;32.10;;;;;;4961578;28;20050;-78
2022/08/30 11:13:12;;;;;;;2.42;1.58;;;33.40;32.10;;;;;;4955135;28;20088;-78
2022/08/30 11:16:04;;;;;;;2.60;1.50;;;33.50;32.20;;;;;;4983350;28;20049;-77
2022/08/30 11:18:55;;;;;;;5.03;1.38;;;33.60;31.30;;;;;;4990883;28;20073;-77
2022/08/30 11:21:31;;;;;;;;;;;33.70;31.60;;;;;;4974583;28;20026;-77
2022/08/30 11:23:59;;;;;;;2.05;1.52;;;33.90;32.10;;;;;;4976839;28;19936;-77
2022/08/30 11:26:43;;;;;;;3.33;1.80;;;34.00;32.00;;;;;;4995766;28;20034;-77
2022/08/30 11:29:29;;;;;;;2.15;1.88;;;34.10;30.40;;;;;;4993657;28;20038;-77
2022/08/30 11:31:55;;;;;;;4.35;1.77;;;34.30;31.20;;;;;;4980058;28;20037;-77
2022/08/30 11:34:43;;;;;;;4.32;1.60;;;34.40;30.90;;;;;;4977743;28;20077;-77
2022/08/30 11:37:08;;;;;;;4.28;2.25;;;34.50;29.80;;;;;;4995675;28;20102;-78
2022/08/30 11:39:45;;;;;;;3.67;1.80;;;34.50;30.30;;;;;;4993968;28;20034;-78
2022/08/30 11:42:32;;;;;;;2.95;1.75;;;34.50;29.80;;;;;;4996309;28;20046;-78
2022/08/30 11:45:22;;;;;;;5.88;1.90;;;34.60;30.00;;;;;;4994304;28;20047;-77
2022/08/30 11:47:52;;;;;;;2.03;1.52;;;34.70;29.70;;;;;;4996490;28;20106;-78
2022/08/30 11:50:51;;;;;;;2.90;2.00;;;34.80;30.00;;;;;;4994302;28;20046;-78
2022/08/30 11:53:42;;;;;;;4.00;2.08;;;34.90;29.60;;;;;;4980727;28;20318;-77
2022/08/30 11:56:13;;;;;;;2.70;1.90;;;35.10;29.40;;;;;;4995314;28;20065;-77
2022/08/30 11:58:50;;;;;;;5.05;1.77;;;35.30;29.60;;;;;;4991820;28;20113;-78
2022/08/30 12:01:21;;;;;;;2.67;1.70;;;35.40;29.50;;;;;;4997180;28;20071;-77
2022/08/30 12:04:23;;;;;;;2.03;1.83;;;35.50;29.70;;;;;;5002281;28;20778;-78
2022/08/30 12:07:02;;;;;;;3.85;2.08;;;35.70;29.20;;;;;;4976623;28;20057;-78
2022/08/30 12:09:29;;;;;;;2.58;1.80;;;35.80;29.30;;;;;;4977786;28;20046;-77
2022/08/30 12:11:56;;;;;;;3.63;1.80;;;36.00;29.50;;;;;;4995710;28;20046;-77
2022/08/30 12:14:43;;;;;;;2.67;1.85;;;36.10;29.20;;;;;;4995943;28;20041;-78
2022/08/30 12:20:30;;;;;;;5.38;1.98;;;36.20;28.60;;;;;;4995911;28;20482;-78
2022/08/30 12:22:55;;;;;;;3.40;1.42;;;36.40;29.00;;;;;;4967384;28;20534;-77
2022/08/30 12:25:23;;;;;;;4.05;1.80;;;36.40;28.80;;;;;;4997959;28;20042;-77
2022/08/30 12:27:48;;;;;;;3.33;1.65;;;36.40;28.70;;;;;;4997649;28;20064;-78
2022/08/30 12:30:20;;;;;;;2.75;1.80;;;36.60;28.40;;;;;;4998393;28;20043;-77
2022/08/30 12:32:46;;;;;;;1.92;1.70;;;36.60;28.40;;;;;;5012966;28;20094;-77
2022/08/30 12:35:19;;;;;;;2.38;1.67;;;36.80;28.30;;;;;;4981032;28;20049;-77
2022/08/30 12:37:54;;;;;;;3.38;1.70;;;36.80;28.10;;;;;;4979690;28;20044;-78
2022/08/30 12:40:21;;;;;;;3.45;1.60;;;36.90;28.00;;;;;;4982395;28;20094;-78
2022/08/30 12:42:50;;;;;;;2.13;1.90;;;37.00;28.10;;;;;;4984698;28;20045;-77
2022/08/30 12:45:21;;;;;;;4.32;1.67;;;37.10;27.80;;;;;;4986196;28;20030;-76
2022/08/30 12:47:57;;;;;;;2.83;1.88;;;37.20;27.90;;;;;;4985542;28;20470;-77
2022/08/30 12:50:52;;;;;;;5.20;2.03;;;37.20;27.60;;;;;;4972398;28;20055;-78
2022/08/30 12:53:22;;;;;;;2.80;1.73;;;37.30;27.10;;;;;;4989978;28;20035;-77
2022/08/30 12:55:58;;;;;;;3.10;1.85;;;37.30;27.50;;;;;;4998045;28;20042;-77
2022/08/30 12:58:34;;;;;;;4.78;1.70;;;37.40;27.60;;;;;;4948852;28;20042;-77
2022/08/30 13:01:28;;;;;;;2.15;1.73;;;37.40;27.00;;;;;;4966458;28;20054;-77
2022/08/30 13:04:12;;;;;;;5.03;1.75;;;37.50;26.90;;;;;;4998970;28;20035;-77
2022/08/30 13:06:57;;;;;;;4.45;1.83;;;37.50;27.20;;;;;;4996206;28;20042;-77
2022/08/30 13:09:30;;;;;;;4.57;1.70;;;37.60;27.10;;;;;;4984568;28;20045;-78
2022/08/30 13:11:55;;;;;;;3.08;1.73;;;37.70;26.90;;;;;;4998788;28;20038;-78
2022/08/30 13:14:33;;;;;;;2.45;1.88;;;37.80;27.00;;;;;;4981876;28;20029;-78